Time;durP1;ratioP1;P1;durP2;ratioP2;P2;SDS_P1;SDS_P2;PMS_P1;PMS_P2;Temp;Humidity;BMP_temperature;BMP_pressure;BME280_temperature;BME280_humidity;BME280_pressure;Samples;Min_cycle;Max_cycle;Signal;HPM_P1;HPM_P2
2022/10/24 00:00:28;;;;;;;29.60;19.90;;;;;;;8.79;94.27;98462.33;106477;1309;140281;-80
2022/10/24 00:03:15;;;;;;;30.20;18.60;;;;;;;8.77;94.37;98457.66;106735;1293;22107;-80
2022/10/24 00:05:43;;;;;;;29.10;19.90;;;;;;;8.77;94.20;98444.40;106573;1309;138592;-80
2022/10/24 00:08:11;;;;;;;34.30;21.10;;;;;;;8.75;94.45;98448.17;106539;1310;22215;-80
2022/10/24 00:10:47;;;;;;;34.20;20.80;;;;;;;8.73;94.28;98452.35;106755;1307;22376;-80
2022/10/24 00:13:15;;;;;;;29.20;21.10;;;;;;;8.69;94.30;98464.64;106512;1287;138203;-80
2022/10/24 00:15:46;;;;;;;29.10;19.40;;;;;;;8.67;94.48;98463.13;106521;1309;22234;-80
2022/10/24 00:18:13;;;;;;;;;;;;;;;8.66;94.62;98468.70;106573;1309;138161;-80
2022/10/24 00:20:40;;;;;;;28.80;19.80;;;;;;;8.64;94.47;98467.31;106551;1309;22104;-80
2022/10/24 00:23:12;;;;;;;29.00;20.10;;;;;;;8.62;94.83;98464.78;106591;1295;22161;-80
2022/10/24 00:25:43;;;;;;;31.30;21.10;;;;;;;8.62;94.82;98457.48;106592;1310;22263;-80
2022/10/24 00:28:12;;;;;;;31.10;19.80;;;;;;;8.61;95.26;98456.45;106625;1310;22154;-80
2022/10/24 00:30:38;;;;;;;32.90;22.00;;;;;;;8.63;94.99;98458.23;106497;1310;138506;-80
2022/10/24 00:33:04;;;;;;;29.80;20.80;;;;;;;8.63;95.06;98445.24;106563;1297;23027;-80
2022/10/24 00:35:34;;;;;;;32.90;22.10;;;;;;;8.63;95.15;98443.39;106386;1298;138624;-80
2022/10/24 00:38:00;;;;;;;35.00;23.10;;;;;;;8.64;95.24;98451.56;106467;1308;22128;-80
2022/10/24 00:40:26;;;;;;;37.20;22.40;;;;;;;8.63;95.30;98452.70;106560;1309;22276;-80
2022/10/24 00:42:53;;;;;;;31.60;21.10;;;;;;;8.62;95.12;98445.33;106460;1296;138391;-80
2022/10/24 00:45:56;;;;;;;33.90;20.30;;;;;;;8.61;95.14;98439.34;106616;1308;22250;-80
2022/10/24 00:48:25;;;;;;;30.70;21.10;;;;;;;8.60;95.25;98432.75;106489;1310;138531;-80
2022/10/24 00:51:02;;;;;;;35.80;21.40;;;;;;;8.58;94.97;98433.83;106607;1310;22098;-81
2022/10/24 00:53:31;;;;;;;32.70;20.70;;;;;;;8.57;94.67;98436.18;106425;1310;138517;-80
2022/10/24 00:56:00;;;;;;;;;;;;;;;8.54;94.74;98437.60;106577;1308;22362;-80
2022/10/24 00:58:29;;;;;;;35.50;21.90;;;;;;;8.52;95.05;98437.27;106839;1302;22003;-80
2022/10/24 01:00:56;;;;;;;37.60;22.90;;;;;;;8.52;95.21;98443.23;106458;1310;138642;-80
2022/10/24 01:03:23;;;;;;;35.80;23.10;;;;;;;8.51;95.26;98438.02;106458;1298;22169;-80
2022/10/24 01:06:07;;;;;;;35.20;21.70;;;;;;;8.50;95.18;98443.85;106751;1303;138688;-80
2022/10/24 01:08:45;;;;;;;34.70;21.90;;;;;;;8.47;94.89;98444.63;106612;1310;22171;-80
2022/10/24 01:11:57;;;;;;;33.10;21.80;;;;;;;8.44;94.68;98446.02;106460;1309;138547;-80
2022/10/24 01:14:44;;;;;;;36.50;20.70;;;;;;;8.41;94.87;98449.66;106595;1296;22172;-80
2022/10/24 01:17:36;;;;;;;32.00;20.60;;;;;;;8.37;94.79;98448.63;106583;1310;22123;-80
2022/10/24 01:20:12;;;;;;;32.80;21.30;;;;;;;8.31;94.97;98450.09;106582;1310;22237;-80
2022/10/24 01:22:55;;;;;;;29.40;21.00;;;;;;;8.27;94.76;98446.90;106528;1310;22140;-80
2022/10/24 01:25:56;;;;;;;33.00;20.40;;;;;;;8.26;95.19;98443.66;106418;1308;138256;-80
2022/10/24 01:28:48;;;;;;;32.70;21.30;;;;;;;8.26;95.52;98443.04;106548;1310;22207;-81
2022/10/24 01:31:26;;;;;;;32.90;19.90;;;;;;;8.30;95.98;98427.87;106531;1294;139174;-80
2022/10/24 01:34:00;;;;;;;29.90;20.20;;;;;;;8.32;96.30;98421.58;106562;1296;22708;-80
2022/10/24 01:36:41;;;;;;;31.40;20.80;;;;;;;8.36;96.64;98426.40;106430;1310;138207;-81
2022/10/24 01:39:14;;;;;;;30.40;20.80;;;;;;;8.40;96.79;98424.30;106575;1296;22963;-80
2022/10/24 01:41:42;;;;;;;31.50;21.40;;;;;;;8.44;96.90;98416.34;106385;1298;138442;-80
2022/10/24 01:44:20;;;;;;;32.60;20.00;;;;;;;8.48;97.06;98420.11;106542;1310;22181;-80
2022/10/24 01:47:16;;;;;;;32.00;19.20;;;;;;;8.52;97.20;98417.52;106562;1311;22469;-81
2022/10/24 01:49:48;;;;;;;34.10;20.30;;;;;;;8.54;97.19;98411.75;106418;1309;138112;-80
2022/10/24 01:52:16;;;;;;;32.20;19.60;;;;;;;8.56;97.04;98403.83;106551;1310;22961;-80
2022/10/24 01:54:44;;;;;;;30.30;19.10;;;;;;;8.58;97.28;98402.08;106452;1296;138136;-80
2022/10/24 01:57:15;;;;;;;29.10;17.60;;;;;;;8.61;97.43;98397.36;106849;1303;22112;-80
2022/10/24 01:59:45;;;;;;;29.80;20.00;;;;;;;8.62;97.23;98396.96;106342;1311;138524;-80
2022/10/24 02:02:32;;;;;;;26.60;17.80;;;;;;;8.65;97.18;98396.27;106587;1310;22237;-80
2022/10/24 02:05:19;;;;;;;27.50;18.60;;;;;;;8.67;97.10;98398.98;106553;1295;22087;-80
2022/10/24 02:07:50;;;;;;;25.30;17.30;;;;;;;8.68;96.98;98402.81;106572;1310;22345;-80
2022/10/24 02:10:21;;;;;;;24.30;15.40;;;;;;;8.64;95.78;98405.80;106583;1294;22186;-80
2022/10/24 02:12:57;;;;;;;25.70;15.80;;;;;;;8.53;94.40;98410.31;106436;1310;138344;-80
2022/10/24 02:15:30;;;;;;;23.50;14.30;;;;;;;8.40;93.74;98412.35;106558;1303;22054;-80
2022/10/24 02:17:57;;;;;;;23.10;14.60;;;;;;;8.27;93.21;98417.22;106521;1310;138403;-80
2022/10/24 02:20:36;;;;;;;25.40;16.30;;;;;;;8.16;93.56;98412.53;106610;1310;22119;-80
2022/10/24 02:23:10;;;;;;;26.40;16.30;;;;;;;8.09;93.73;98410.67;106601;1309;22147;-80
2022/10/24 02:25:41;;;;;;;22.70;16.20;;;;;;;8.05;94.28;98402.34;106433;1289;138195;-80
2022/10/24 02:28:17;;;;;;;22.80;15.80;;;;;;;8.02;94.47;98403.15;106549;1310;22081;-80
2022/10/24 02:30:52;;;;;;;25.70;16.60;;;;;;;7.99;94.54;98396.20;106453;1310;138281;-80
2022/10/24 02:33:19;;;;;;;25.40;16.70;;;;;;;7.98;94.65;98389.84;106553;1310;22089;-80
2022/10/24 02:35:48;;;;;;;25.70;16.70;;;;;;;8.00;95.20;98392.52;106478;1288;138224;-80
2022/10/24 02:38:23;;;;;;;25.40;16.30;;;;;;;8.02;95.48;98405.11;106637;1310;22910;-80
2022/10/24 02:40:51;;;;;;;26.70;16.90;;;;;;;8.05;95.72;98403.43;106628;1310;22279;-80
2022/10/24 02:43:20;;;;;;;24.00;16.60;;;;;;;8.04;95.58;98392.27;106514;1310;138243;-80
2022/10/24 02:45:48;;;;;;;30.10;17.50;;;;;;;8.05;95.53;98390.55;106566;1298;22129;-79
2022/10/24 02:48:17;;;;;;;28.20;17.40;;;;;;;8.06;95.89;98388.89;106483;1310;138195;-81
2022/10/24 02:50:44;;;;;;;27.90;18.00;;;;;;;8.08;96.33;98387.85;106626;1302;22732;-80
2022/10/24 02:53:15;;;;;;;30.50;18.20;;;;;;;8.12;96.49;98391.27;106511;1311;22055;-80
2022/10/24 02:55:41;;;;;;;29.80;19.10;;;;;;;8.16;96.87;98396.84;106502;1296;138212;-80
2022/10/24 02:58:07;;;;;;;26.30;17.60;;;;;;;8.18;96.41;98391.81;106879;1288;22078;-80
2022/10/24 03:00:34;;;;;;;28.40;17.00;;;;;;;8.19;96.13;98387.54;106729;1298;138502;-80
2022/10/24 03:03:00;;;;;;;23.70;16.80;;;;;;;8.21;96.18;98384.02;106581;1310;22124;-80
2022/10/24 03:05:29;;;;;;;22.90;16.00;;;;;;;8.21;95.82;98382.59;106756;1286;138603;-79
2022/10/24 03:07:55;;;;;;;28.40;17.10;;;;;;;8.19;95.16;98387.55;106611;1305;22111;-80
2022/10/24 03:10:21;;;;;;;31.60;17.60;;;;;;;8.15;95.34;98388.10;106621;1304;22378;-80
2022/10/24 03:12:47;;;;;;;24.50;15.30;;;;;;;8.13;95.16;98390.20;106504;1310;138333;-80
2022/10/24 03:15:15;;;;;;;25.50;14.70;;;;;;;8.13;95.48;98396.55;106607;1294;23074;-80
2022/10/24 03:17:41;;;;;;;22.50;15.10;;;;;;;8.13;95.17;98387.17;106716;1302;138673;-80
2022/10/24 03:20:08;;;;;;;25.30;15.20;;;;;;;8.11;94.84;98381.80;106586;1312;22795;-80
2022/10/24 03:22:34;;;;;;;21.90;14.50;;;;;;;8.10;94.69;98381.34;106554;1311;22784;-80
2022/10/24 03:25:02;;;;;;;24.00;15.10;;;;;;;8.10;94.94;98384.34;106472;1310;138400;-79
2022/10/24 03:27:30;;;;;;;24.30;14.90;;;;;;;8.08;94.57;98377.97;106542;1312;23023;-79
2022/10/24 03:29:56;;;;;;;26.50;15.20;;;;;;;8.06;94.42;98383.35;106472;1312;138361;-79
2022/10/24 03:32:22;;;;;;;24.80;15.50;;;;;;;8.04;94.93;98384.45;106589;1304;22035;-79
2022/10/24 03:34:48;;;;;;;26.60;17.00;;;;;;;8.07;95.36;98385.45;106582;1310;22471;-79
2022/10/24 03:37:15;;;;;;;28.80;18.20;;;;;;;8.10;95.73;98382.61;106469;1296;138209;-79
2022/10/24 03:39:41;;;;;;;28.00;17.70;;;;;;;8.15;96.18;98371.82;106516;1312;22276;-79
2022/10/24 03:42:07;;;;;;;26.30;16.10;;;;;;;8.19;96.08;98364.17;106511;1310;138368;-79
2022/10/24 03:44:36;;;;;;;24.90;15.80;;;;;;;8.24;96.21;98358.80;106617;1308;22131;-79
2022/10/24 03:47:02;;;;;;;26.70;16.50;;;;;;;8.26;96.23;98348.34;106574;1298;22779;-79
2022/10/24 03:49:31;;;;;;;33.10;18.00;;;;;;;8.30;96.27;98348.50;106479;1312;138232;-79
2022/10/24 03:51:57;;;;;;;27.50;16.90;;;;;;;8.34;96.30;98355.71;106572;1311;22368;-79
2022/10/24 03:54:26;;;;;;;23.00;16.00;;;;;;;8.37;96.32;98364.94;106469;1305;138370;-79
2022/10/24 03:56:52;;;;;;;28.00;16.20;;;;;;;8.41;96.61;98366.84;106578;1304;22248;-79
2022/10/24 03:59:18;;;;;;;23.70;15.20;;;;;;;8.43;96.30;98376.52;106628;1310;22954;-79
2022/10/24 04:01:44;;;;;;;22.00;15.10;;;;;;;8.37;95.05;98378.80;106476;1310;138063;-79
2022/10/24 04:04:11;;;;;;;24.10;15.40;;;;;;;8.29;94.58;98378.90;106601;1311;22180;-79
2022/10/24 04:06:39;;;;;;;23.70;15.10;;;;;;;8.22;94.47;98372.64;106474;1296;138668;-79
2022/10/24 04:09:06;;;;;;;21.60;14.20;;;;;;;8.19;94.64;98374.19;106483;1310;22932;-79
2022/10/24 04:11:34;;;;;;;21.90;14.20;;;;;;;8.18;95.05;98377.83;106563;1305;138264;-79
2022/10/24 04:14:00;;;;;;;22.60;14.50;;;;;;;8.21;95.41;98377.88;106466;1306;22270;-79
2022/10/24 04:16:27;;;;;;;24.10;15.90;;;;;;;8.23;95.65;98377.30;106585;1294;22327;-79
2022/10/24 04:18:53;;;;;;;22.10;14.30;;;;;;;8.24;95.10;98378.84;106515;1310;138200;-79
2022/10/24 04:21:19;;;;;;;26.50;15.80;;;;;;;8.20;94.51;98373.84;106611;1310;22393;-79
2022/10/24 04:23:45;;;;;;;21.20;15.20;;;;;;;8.15;94.31;98371.98;106495;1310;138930;-79
2022/10/24 04:26:13;;;;;;;21.20;14.00;;;;;;;8.15;94.95;98366.41;106649;1310;22222;-79
2022/10/24 04:28:40;;;;;;;23.90;15.20;;;;;;;8.15;94.74;98373.57;106554;1298;22092;-79
2022/10/24 04:31:06;;;;;;;26.90;16.60;;;;;;;8.17;95.31;98374.92;106708;1302;138192;-79
2022/10/24 04:33:32;;;;;;;22.30;16.00;;;;;;;8.20;95.52;98373.63;106484;1312;22335;-79
2022/10/24 04:35:58;;;;;;;27.10;15.80;;;;;;;8.23;95.68;98373.38;106466;1308;138622;-79
2022/10/24 04:38:24;;;;;;;26.20;15.40;;;;;;;8.25;95.81;98378.05;106594;1296;22142;-79
2022/10/24 04:40:53;;;;;;;24.70;15.40;;;;;;;8.28;95.86;98379.60;106624;1310;22431;-79
2022/10/24 04:43:25;;;;;;;24.50;14.70;;;;;;;8.31;95.88;98378.59;106539;1310;138279;-79
2022/10/24 04:45:51;;;;;;;22.40;14.30;;;;;;;8.35;96.00;98369.77;106628;1310;22388;-79
2022/10/24 04:48:20;;;;;;;24.30;14.50;;;;;;;8.37;95.91;98369.35;106456;1301;138126;-79
2022/10/24 04:50:47;;;;;;;21.60;13.70;;;;;;;8.39;95.90;98372.20;106532;1312;22823;-79
2022/10/24 04:53:13;;;;;;;20.60;14.30;;;;;;;8.39;95.78;98380.30;106492;1312;22857;-78
2022/10/24 04:55:39;;;;;;;21.50;14.00;;;;;;;8.42;95.98;98381.81;106407;1312;138195;-79
2022/10/24 04:58:05;;;;;;;23.70;15.00;;;;;;;8.43;96.16;98379.40;106535;1303;22057;-79
2022/10/24 05:00:31;;;;;;;22.70;14.60;;;;;;;8.44;95.95;98381.85;106525;1310;138268;-79
2022/10/24 05:02:57;;;;;;;23.00;15.40;;;;;;;8.44;95.69;98383.02;106607;1310;22929;-79
2022/10/24 05:05:24;;;;;;;24.50;14.80;;;;;;;8.43;95.30;98376.40;106496;1310;139028;-78
2022/10/24 05:07:50;;;;;;;26.10;14.60;;;;;;;8.41;95.09;98372.27;106491;1311;22374;-79
2022/10/24 05:10:16;;;;;;;19.70;13.50;;;;;;;8.40;94.79;98369.56;106548;1310;22207;-79
2022/10/24 05:12:44;;;;;;;20.10;13.40;;;;;;;8.38;94.96;98372.89;106427;1311;138399;-79
2022/10/24 05:15:13;;;;;;;18.00;12.90;;;;;;;8.39;95.22;98369.55;106535;1309;22975;-79
2022/10/24 05:17:39;;;;;;;20.60;14.10;;;;;;;8.40;95.67;98358.08;106376;1306;138699;-79
2022/10/24 05:20:06;;;;;;;18.40;12.80;;;;;;;8.41;95.49;98354.36;106478;1302;22277;-79
2022/10/24 05:22:35;;;;;;;19.60;11.70;;;;;;;8.42;95.71;98349.09;106431;1312;22263;-79
2022/10/24 05:25:02;;;;;;;18.40;12.60;;;;;;;8.45;95.86;98350.36;106352;1312;138194;-78
2022/10/24 05:27:28;;;;;;;20.40;12.90;;;;;;;8.48;95.88;98347.59;106485;1306;22991;-78
2022/10/24 05:29:57;;;;;;;20.80;13.60;;;;;;;8.50;95.92;98349.52;105952;1302;138520;-79
2022/10/24 05:32:24;;;;;;;20.00;13.20;;;;;;;8.53;96.00;98355.45;106249;1313;22199;-79
2022/10/24 05:34:51;;;;;;;19.20;12.30;;;;;;;8.54;95.67;98362.31;106532;1302;22597;-79
2022/10/24 05:37:17;;;;;;;21.50;13.20;;;;;;;8.54;95.42;98364.64;106170;1310;138451;-79
2022/10/24 05:39:43;;;;;;;18.60;12.30;;;;;;;8.53;95.10;98368.05;106260;1313;22269;-79
2022/10/24 05:42:10;;;;;;;18.20;12.50;;;;;;;8.54;95.35;98372.34;106202;1312;139055;-79
2022/10/24 05:44:36;;;;;;;17.80;11.90;;;;;;;8.55;95.42;98377.15;106348;1313;22449;-79
2022/10/24 05:47:03;;;;;;;15.80;10.80;;;;;;;8.56;95.29;98378.11;106438;1312;22233;-79
2022/10/24 05:49:29;;;;;;;19.30;10.90;;;;;;;8.57;95.36;98374.80;106429;1300;138473;-79
2022/10/24 05:51:55;;;;;;;21.40;11.50;;;;;;;8.58;95.18;98373.24;106616;1310;22857;-79
2022/10/24 05:54:21;;;;;;;18.10;10.50;;;;;;;8.57;95.14;98376.93;106728;1303;138425;-79
2022/10/24 05:56:48;;;;;;;19.80;10.90;;;;;;;8.56;95.06;98382.66;106461;1310;22418;-79
2022/10/24 05:59:14;;;;;;;16.90;10.90;;;;;;;8.55;95.32;98366.30;106468;1299;23037;-79
2022/10/24 06:01:40;;;;;;;16.90;11.20;;;;;;;8.57;95.49;98366.39;106411;1305;138039;-79
2022/10/24 06:04:07;;;;;;;17.40;11.60;;;;;;;8.59;95.57;98367.95;106494;1312;22212;-79
2022/10/24 06:06:41;;;;;;;22.00;12.80;;;;;;;8.63;95.57;98369.23;106404;1312;139197;-79
2022/10/24 06:09:09;;;;;;;20.10;11.90;;;;;;;8.66;95.72;98369.05;106505;1284;23065;-79
2022/10/24 06:11:35;;;;;;;20.30;11.80;;;;;;;8.69;95.65;98371.54;106333;1312;138396;-79
2022/10/24 06:14:01;;;;;;;20.00;12.70;;;;;;;8.71;95.75;98380.45;106368;1312;22852;-75
2022/10/24 06:16:29;;;;;;;21.60;13.10;;;;;;;8.76;96.30;98381.28;106376;1311;22321;-75
2022/10/24 06:18:56;;;;;;;22.40;13.30;;;;;;;8.90;97.56;98386.73;106356;1299;138208;-75
2022/10/24 06:21:23;;;;;;;21.50;14.10;;;;;;;9.09;97.88;98386.02;106818;1303;22933;-79
2022/10/24 06:23:50;;;;;;;22.40;14.20;;;;;;;9.22;96.63;98390.65;106494;1310;138698;-79
2022/10/24 06:26:17;;;;;;;25.30;14.60;;;;;;;9.28;95.54;98398.98;106595;1311;22795;-80
2022/10/24 06:28:43;;;;;;;20.40;13.50;;;;;;;9.31;94.88;98401.77;106594;1308;22071;-80
2022/10/24 06:31:11;;;;;;;21.00;13.70;;;;;;;9.29;94.03;98405.58;106572;1292;138239;-79
2022/10/24 06:33:38;;;;;;;22.80;15.00;;;;;;;9.27;94.31;98405.10;106554;1311;22262;-79
2022/10/24 06:36:08;;;;;;;28.30;15.70;;;;;;;9.27;94.25;98398.09;106446;1310;138530;-79
2022/10/24 06:38:35;;;;;;;38.40;21.90;;;;;;;9.28;94.28;98408.61;106818;1297;23196;-79
2022/10/24 06:41:06;;;;;;;31.10;20.10;;;;;;;9.29;94.23;98408.70;106572;1292;23178;-79
2022/10/24 06:43:32;;;;;;;27.60;18.80;;;;;;;9.31;94.07;98406.33;106461;1298;138218;-79
2022/10/24 06:45:58;;;;;;;29.10;18.50;;;;;;;9.32;94.20;98405.06;106547;1312;22256;-79
2022/10/24 06:48:25;;;;;;;28.20;16.90;;;;;;;9.35;94.30;98405.65;106490;1311;138263;-80
2022/10/24 06:50:51;;;;;;;26.40;17.60;;;;;;;9.38;94.65;98406.10;106857;1293;22356;-80
2022/10/24 06:53:17;;;;;;;29.00;18.60;;;;;;;9.41;94.51;98407.10;106588;1310;22143;-78
2022/10/24 06:55:43;;;;;;;29.60;18.30;;;;;;;9.43;94.45;98416.27;106498;1302;138157;-79
2022/10/24 06:58:09;;;;;;;27.10;17.00;;;;;;;9.47;94.58;98415.48;106614;1304;22067;-79
2022/10/24 07:00:37;;;;;;;29.30;16.60;;;;;;;9.50;94.56;98416.25;106363;1299;138211;-80
2022/10/24 07:03:03;;;;;;;27.60;16.80;;;;;;;9.56;94.83;98415.61;106432;1289;22199;-79
2022/10/24 07:05:29;;;;;;;30.50;17.70;;;;;;;9.60;94.77;98413.92;106316;1312;138456;-79
2022/10/24 07:07:55;;;;;;;28.20;17.80;;;;;;;9.65;94.59;98416.46;106524;1311;22172;-79
2022/10/24 07:10:21;;;;;;;27.70;17.50;;;;;;;9.70;94.62;98415.98;106516;1312;22144;-79
2022/10/24 07:12:48;;;;;;;24.50;17.00;;;;;;;9.78;94.94;98415.58;106434;1312;138376;-79
2022/10/24 07:15:14;;;;;;;29.00;18.40;;;;;;;9.83;94.58;98412.63;106518;1310;22155;-79
2022/10/24 07:17:44;;;;;;;28.60;17.60;;;;;;;9.87;95.08;98407.73;106408;1312;138407;-79
2022/10/24 07:20:12;;;;;;;26.90;18.00;;;;;;;9.94;94.65;98407.70;106553;1299;22352;-79
2022/10/24 07:22:38;;;;;;;26.40;17.00;;;;;;;10.01;94.81;98412.88;106601;1308;22159;-79
2022/10/24 07:25:05;;;;;;;29.80;17.70;;;;;;;10.06;94.63;98410.92;106461;1310;138938;-79
2022/10/24 07:27:32;;;;;;;30.70;19.10;;;;;;;10.10;94.59;98408.37;106569;1312;22288;-79
2022/10/24 07:29:58;;;;;;;27.60;18.90;;;;;;;10.14;94.59;98405.73;106732;1302;138721;-79
2022/10/24 07:32:24;;;;;;;27.90;18.30;;;;;;;10.18;94.83;98401.17;106527;1293;22289;-79
2022/10/24 07:34:50;;;;;;;29.50;18.40;;;;;;;10.23;94.94;98403.77;106560;1311;23583;-79
2022/10/24 07:37:17;;;;;;;28.90;18.40;;;;;;;10.31;95.13;98401.00;106413;1312;138312;-79
2022/10/24 07:39:45;;;;;;;29.80;18.50;;;;;;;10.42;95.28;98397.83;106577;1308;22171;-80
2022/10/24 07:42:12;;;;;;;26.50;18.40;;;;;;;10.53;95.28;98396.61;106466;1300;138514;-79
2022/10/24 07:44:38;;;;;;;29.00;18.20;;;;;;;10.65;95.20;98400.77;106600;1310;22260;-79
2022/10/24 07:47:07;;;;;;;29.60;19.40;;;;;;;10.76;94.98;98395.05;106594;1310;22946;-79
2022/10/24 07:49:34;;;;;;;30.60;19.10;;;;;;;10.90;95.01;98394.86;106478;1310;138374;-79
2022/10/24 07:52:01;;;;;;;30.00;18.10;;;;;;;11.03;94.93;98398.77;106539;1284;23044;-79
2022/10/24 07:54:28;;;;;;;31.10;20.20;;;;;;;11.14;94.89;98396.80;106413;1312;138402;-79
2022/10/24 07:56:55;;;;;;;32.40;20.00;;;;;;;11.26;94.57;98396.27;106548;1312;22211;-79
2022/10/24 07:59:21;;;;;;;30.30;19.50;;;;;;;11.37;94.64;98386.11;106514;1312;22096;-79
2022/10/24 08:01:47;;;;;;;27.00;18.60;;;;;;;11.49;94.44;98380.54;106439;1299;138518;-79
2022/10/24 08:04:13;;;;;;;28.10;19.60;;;;;;;11.60;94.05;98381.83;106614;1313;22232;-80
2022/10/24 08:06:41;;;;;;;34.60;19.20;;;;;;;11.70;93.99;98390.41;106483;1311;138415;-79
2022/10/24 08:09:07;;;;;;;36.30;20.20;;;;;;;11.81;93.98;98388.19;106600;1310;23089;-80
2022/10/24 08:11:33;;;;;;;31.50;20.40;;;;;;;11.93;93.77;98390.75;106442;1302;138537;-79
2022/10/24 08:14:01;;;;;;;32.00;17.80;;;;;;;12.08;93.87;98393.27;106509;1307;22088;-79
2022/10/24 08:16:27;;;;;;;29.70;20.20;;;;;;;12.22;93.52;98399.23;106573;1310;22349;-79
2022/10/24 08:18:56;;;;;;;29.20;18.90;;;;;;;12.37;93.36;98397.95;106464;1310;138488;-80
2022/10/24 08:21:23;;;;;;;27.40;18.90;;;;;;;12.52;93.06;98395.96;106569;1299;23038;-79
2022/10/24 08:23:53;;;;;;;25.40;17.20;;;;;;;12.65;92.43;98395.80;106517;1311;138561;-78
2022/10/24 08:26:21;;;;;;;27.20;18.50;;;;;;;12.76;91.85;98387.70;106869;1309;22067;-79
2022/10/24 08:28:48;;;;;;;26.80;18.20;;;;;;;12.88;91.87;98386.47;106615;1311;22431;-79
2022/10/24 08:31:18;;;;;;;25.90;17.90;;;;;;;13.01;91.49;98382.58;106742;1304;138538;-79
2022/10/24 08:33:45;;;;;;;26.30;17.90;;;;;;;13.14;91.42;98376.75;106542;1301;22816;-79
2022/10/24 08:36:27;;;;;;;22.30;16.40;;;;;;;13.28;90.69;98373.30;106342;1312;138870;-79
2022/10/24 08:38:54;;;;;;;24.00;15.60;;;;;;;13.42;90.62;98372.30;106556;1310;22312;-79
2022/10/24 08:41:30;;;;;;;21.10;16.00;;;;;;;13.58;90.67;98375.11;106572;1310;22118;-79
2022/10/24 08:44:05;;;;;;;23.70;16.40;;;;;;;13.74;89.83;98379.34;106488;1309;22076;-79
2022/10/24 08:46:49;;;;;;;22.60;16.20;;;;;;;13.89;89.44;98371.79;106848;1291;22856;-79
2022/10/24 08:49:39;;;;;;;22.80;14.00;;;;;;;14.03;88.90;98355.99;106493;1310;138304;-79
2022/10/24 08:52:15;;;;;;;23.40;14.80;;;;;;;14.20;88.62;98334.29;106571;1297;22139;-79
2022/10/24 08:54:43;;;;;;;19.80;13.10;;;;;;;14.35;88.16;98333.44;106462;1311;138353;-78
2022/10/24 08:57:19;;;;;;;21.70;13.00;;;;;;;14.50;87.79;98340.89;106587;1310;22152;-79
2022/10/24 08:59:46;;;;;;;20.90;13.00;;;;;;;14.69;87.44;98341.19;106368;1311;139313;-79
2022/10/24 09:02:22;;;;;;;20.00;12.80;;;;;;;14.88;86.44;98336.58;106508;1299;22365;-79
2022/10/24 09:04:55;;;;;;;19.10;11.10;;;;;;;15.11;85.75;98340.10;106508;1312;23309;-80
2022/10/24 09:07:22;;;;;;;17.70;11.00;;;;;;;15.30;85.46;98332.75;106520;1310;138639;-81
2022/10/24 09:09:56;;;;;;;17.20;10.50;;;;;;;15.43;84.86;98328.44;106625;1310;22209;-80
2022/10/24 09:12:23;;;;;;;16.90;10.50;;;;;;;15.54;84.43;98336.14;106503;1310;138813;-80
2022/10/24 09:14:56;;;;;;;14.80;9.60;;;;;;;15.65;84.22;98343.77;106528;1308;22345;-79
2022/10/24 09:17:34;;;;;;;13.00;9.00;;;;;;;15.75;83.57;98340.84;106559;1310;22161;-79
2022/10/24 09:20:05;;;;;;;15.60;9.30;;;;;;;15.85;83.23;98343.71;106574;1310;22093;-75
2022/10/24 09:22:34;;;;;;;13.70;8.80;;;;;;;15.94;82.52;98349.93;106498;1311;22745;-75
2022/10/24 09:25:04;;;;;;;17.40;8.30;;;;;;;16.02;81.56;98346.48;106712;1289;138484;-79
2022/10/24 09:27:37;;;;;;;12.10;7.60;;;;;;;16.09;81.65;98341.36;106453;1306;22289;-79
2022/10/24 09:30:10;;;;;;;14.10;9.40;;;;;;;16.16;81.26;98346.61;106462;1309;138589;-80
2022/10/24 09:32:37;;;;;;;13.20;9.90;;;;;;;16.21;81.40;98347.58;106821;1302;22729;-79
2022/10/24 09:35:07;;;;;;;16.90;10.50;;;;;;;16.25;81.22;98350.13;106469;1299;222764;-79
2022/10/24 09:37:33;;;;;;;13.40;9.10;;;;;;;16.30;80.96;98355.38;106506;1310;138765;-81
2022/10/24 09:40:26;;;;;;;15.40;9.60;;;;;;;16.33;80.48;98360.67;106586;1310;22177;-79
2022/10/24 09:42:55;;;;;;;19.90;10.10;;;;;;;16.38;80.54;98360.15;106515;1310;138209;-79
2022/10/24 09:45:32;;;;;;;20.20;9.90;;;;;;;16.44;80.53;98356.52;106472;1305;21985;-79
2022/10/24 09:48:20;;;;;;;15.70;9.40;;;;;;;16.51;80.66;98349.67;106405;1310;138441;-79
2022/10/24 09:50:49;;;;;;;17.20;9.70;;;;;;;16.64;80.51;98346.50;106472;1312;22389;-79
2022/10/24 09:53:36;;;;;;;18.50;10.20;;;;;;;16.71;80.14;98349.30;106544;1299;22088;-80
2022/10/24 09:56:12;;;;;;;16.40;9.20;;;;;;;16.79;80.09;98339.82;106550;1305;22125;-79
2022/10/24 09:58:39;;;;;;;17.10;9.50;;;;;;;16.87;80.19;98330.43;106557;1310;22314;-80
2022/10/24 10:01:26;;;;;;;13.30;8.70;;;;;;;16.96;79.97;98328.24;106455;1310;138431;-79
2022/10/24 10:04:04;;;;;;;17.90;9.90;;;;;;;17.04;79.80;98326.75;106562;1296;23067;-80
2022/10/24 10:06:32;;;;;;;16.80;8.80;;;;;;;17.11;79.52;98324.25;106513;1310;138279;-80
2022/10/24 10:08:58;;;;;;;15.30;8.80;;;;;;;17.16;79.57;98324.15;106625;1310;22223;-79
2022/10/24 10:11:26;;;;;;;14.30;8.50;;;;;;;17.17;79.18;98319.28;106601;1310;22304;-79
2022/10/24 10:13:54;;;;;;;13.00;8.10;;;;;;;17.17;78.92;98310.98;106502;1296;138280;-80
2022/10/24 10:16:24;;;;;;;15.00;8.10;;;;;;;17.18;78.70;98313.50;106547;1306;22085;-80
2022/10/24 10:19:00;;;;;;;12.80;8.80;;;;;;;17.19;78.60;98308.20;106372;1312;138284;-80
2022/10/24 10:21:26;;;;;;;11.20;7.20;;;;;;;17.20;78.43;98312.92;106552;1310;22415;-80
2022/10/24 10:23:55;;;;;;;12.30;7.80;;;;;;;17.23;78.37;98310.02;106279;1312;138359;-79
2022/10/24 10:26:40;;;;;;;13.50;7.80;;;;;;;17.27;78.54;98309.42;106587;1294;22141;-79
2022/10/24 10:29:24;;;;;;;14.70;8.30;;;;;;;17.33;78.47;98318.79;106583;1310;22170;-79
2022/10/24 10:32:29;;;;;;;15.40;7.80;;;;;;;17.37;78.08;98331.27;106462;1310;139064;-79
2022/10/24 10:35:24;;;;;;;17.70;7.50;;;;;;;17.40;78.07;98333.13;106467;1301;23102;-79
2022/10/24 10:38:07;;;;;;;14.10;7.30;;;;;;;17.40;78.09;98335.76;106672;1302;138199;-79
2022/10/24 10:40:43;;;;;;;14.60;7.30;;;;;;;17.41;77.77;98340.43;106534;1303;22316;-79
2022/10/24 10:43:21;;;;;;;13.50;7.70;;;;;;;17.43;77.60;98334.95;106708;1302;138110;-79
2022/10/24 10:46:05;;;;;;;12.30;7.00;;;;;;;17.45;77.52;98334.89;106409;1302;22272;-79
2022/10/24 10:48:38;;;;;;;9.70;6.90;;;;;;;17.45;77.25;98333.52;106339;1311;138452;-79
2022/10/24 10:51:17;;;;;;;17.80;8.20;;;;;;;17.45;77.41;98338.79;106419;1312;22237;-79
2022/10/24 10:54:04;;;;;;;11.00;6.40;;;;;;;17.45;77.23;98333.44;106433;1310;138445;-79
2022/10/24 10:56:47;;;;;;;14.00;7.00;;;;;;;17.46;77.26;98321.16;106566;1296;22288;-79
2022/10/24 10:59:29;;;;;;;13.60;6.70;;;;;;;17.48;77.11;98311.56;106548;1310;22312;-79
2022/10/24 11:02:15;;;;;;;12.40;6.80;;;;;;;17.50;77.22;98323.70;106703;1303;138017;-79
2022/10/24 11:05:01;;;;;;;12.50;6.20;;;;;;;17.51;76.90;98337.02;106605;1305;22154;-79
2022/10/24 11:07:30;;;;;;;11.70;6.10;;;;;;;17.54;76.66;98340.40;106288;1312;138439;-79
2022/10/24 11:10:00;;;;;;;;;;;;;;;17.59;76.57;98337.69;106516;1310;22365;-79
2022/10/24 11:12:37;;;;;;;16.60;7.00;;;;;;;17.65;76.55;98339.09;106714;1293;125044;-80
2022/10/24 11:15:14;;;;;;;15.10;6.80;;;;;;;17.76;76.31;98343.10;106787;1294;22239;-79
2022/10/24 11:17:58;;;;;;;12.10;6.20;;;;;;;17.88;75.96;98337.84;106706;1303;138437;-79
2022/10/24 11:20:33;;;;;;;12.40;6.00;;;;;;;18.04;75.01;98329.25;106447;1310;22244;-79
2022/10/24 11:23:11;;;;;;;11.90;5.20;;;;;;;18.27;74.54;98326.89;106577;1310;23020;-80
2022/10/24 11:25:45;;;;;;;11.30;5.60;;;;;;;18.49;73.62;98320.52;106478;1294;138195;-79
2022/10/24 11:28:18;;;;;;;12.70;5.70;;;;;;;18.68;73.18;98315.03;106811;1302;22218;-79
2022/10/24 11:31:07;;;;;;;13.50;5.70;;;;;;;18.86;72.29;98316.84;106459;1310;138253;-79